Hauptseite
METAR-TAF:

METAR-TAF

Flughäfen :

Flughafen Kassel-Calden

Kassel, Deutschland

Breite: 51-24N, Länge: 009-23E, Höhe: 277 m

Beobachtung

Neuester Wetterbericht von vor 9 Stunden und 51 Minuten, um 18:50 UTC
Wind 14 kt aus Ost
Temperatur 1°C
Luftfeuchtigkeit 86%
Luftdruck 1011 hPa
Sichtweite: 9000 m
Geschlossene Wolkendecke in der Höhe von 1000 ft

METAR: EDVK 201850Z 10014KT 9000 OVC010 01/M01 Q1011

Zeit: 05:41 (04:41 UTC)

Prognose

Neuester Wetterbericht von vor 11 Stunden und 41 Minuten, um 17:00 UTC
Gültige Prognose vom 20 um 18 UTC bis 21 um 03 UTC
Wind 9 kt aus Ost
Sichtweite: 6000 m
Durchbrochene Bewölkung in der Höhe von 1200 ft
Zeitweise
vom 20 um 18 UTC bis 21 um 03 UTC
Sichtweite: 4000 m
Durchbrochene Bewölkung in der Höhe von 800 ft
feuchter Dunst

TAF: EDVK 201700Z 2018/2103 09009KT 6000 BKN012 TEMPO 2018/2103 4000 BR BKN008

Wetterbeobachtungen und Prognosen von mehr als 4000 Flughäfen (METAR und TAF Bericht).

Die verfügbaren Stationen werden durch gelbe und rote Markierungen auf der Karte dargestellt.

Führen Sie die Maus auf sie, um den Namen der Station zu sehen.

Darauf klicken, um die Beobachtung von Wetterbeobachtungen und Prognosen zu sehen.

Um die Karte zu ändern : klicken Sie auf den grünen Tasten mit einem schwarzen Kreuz Zum Vergrößern, auf den grünen Button mit einem Gedankenstrich zu verkleinern, oder auf die grünen Pfeile für benachbarte Karten.


METAR-TAF: